sensor_id;sensor_type;location;lat;lon;timestamp;P1;durP1;ratioP1;P2;durP2;ratioP2
51828;SDS011;37881;48.024;8.774;2023-03-19T00:00:26;14.40;;;8.73;;
51828;SDS011;37881;48.024;8.774;2023-03-19T00:02:53;14.70;;;8.90;;
51828;SDS011;37881;48.024;8.774;2023-03-19T00:05:20;23.10;;;11.23;;
51828;SDS011;37881;48.024;8.774;2023-03-19T00:07:46;31.50;;;13.82;;
51828;SDS011;37881;48.024;8.774;2023-03-19T00:10:13;31.10;;;14.17;;
51828;SDS011;37881;48.024;8.774;2023-03-19T00:12:40;25.80;;;12.40;;
51828;SDS011;37881;48.024;8.774;2023-03-19T00:15:07;18.98;;;11.27;;
51828;SDS011;37881;48.024;8.774;2023-03-19T00:17:39;18.98;;;10.05;;
51828;SDS011;37881;48.024;8.774;2023-03-19T00:20:08;20.00;;;11.23;;
51828;SDS011;37881;48.024;8.774;2023-03-19T00:22:37;16.03;;;10.13;;
51828;SDS011;37881;48.024;8.774;2023-03-19T00:25:05;15.90;;;9.85;;
51828;SDS011;37881;48.024;8.774;2023-03-19T00:27:33;17.20;;;10.38;;
51828;SDS011;37881;48.024;8.774;2023-03-19T00:30:02;18.30;;;9.82;;
51828;SDS011;37881;48.024;8.774;2023-03-19T00:32:30;13.20;;;8.27;;
51828;SDS011;37881;48.024;8.774;2023-03-19T00:34:59;16.77;;;8.60;;
51828;SDS011;37881;48.024;8.774;2023-03-19T00:37:25;18.42;;;10.38;;
51828;SDS011;37881;48.024;8.774;2023-03-19T00:39:52;17.85;;;11.15;;
51828;SDS011;37881;48.024;8.774;2023-03-19T00:42:19;19.30;;;10.90;;
51828;SDS011;37881;48.024;8.774;2023-03-19T00:44:46;19.23;;;10.40;;
51828;SDS011;37881;48.024;8.774;2023-03-19T00:47:12;16.13;;;10.60;;
51828;SDS011;37881;48.024;8.774;2023-03-19T00:49:39;20.50;;;11.95;;
51828;SDS011;37881;48.024;8.774;2023-03-19T00:52:06;18.13;;;10.60;;
51828;SDS011;37881;48.024;8.774;2023-03-19T00:54:33;17.80;;;10.07;;
51828;SDS011;37881;48.024;8.774;2023-03-19T00:56:59;14.32;;;9.77;;
51828;SDS011;37881;48.024;8.774;2023-03-19T00:59:26;14.07;;;8.60;;
51828;SDS011;37881;48.024;8.774;2023-03-19T01:01:53;14.52;;;8.93;;
51828;SDS011;37881;48.024;8.774;2023-03-19T01:04:19;16.10;;;9.90;;
51828;SDS011;37881;48.024;8.774;2023-03-19T01:06:47;17.35;;;10.07;;
51828;SDS011;37881;48.024;8.774;2023-03-19T01:09:14;17.35;;;10.15;;
51828;SDS011;37881;48.024;8.774;2023-03-19T01:11:41;15.63;;;10.03;;
51828;SDS011;37881;48.024;8.774;2023-03-19T01:14:08;16.08;;;9.68;;
51828;SDS011;37881;48.024;8.774;2023-03-19T01:16:34;18.38;;;10.63;;
51828;SDS011;37881;48.024;8.774;2023-03-19T01:19:01;17.45;;;10.60;;
51828;SDS011;37881;48.024;8.774;2023-03-19T01:21:28;15.13;;;9.90;;
51828;SDS011;37881;48.024;8.774;2023-03-19T01:23:59;14.87;;;9.07;;
51828;SDS011;37881;48.024;8.774;2023-03-19T01:26:25;17.20;;;9.75;;
51828;SDS011;37881;48.024;8.774;2023-03-19T01:28:52;17.98;;;9.20;;
51828;SDS011;37881;48.024;8.774;2023-03-19T01:31:19;22.40;;;11.57;;
51828;SDS011;37881;48.024;8.774;2023-03-19T01:33:47;21.35;;;10.88;;
51828;SDS011;37881;48.024;8.774;2023-03-19T01:36:13;22.30;;;11.60;;
51828;SDS011;37881;48.024;8.774;2023-03-19T01:38:40;18.13;;;10.18;;
51828;SDS011;37881;48.024;8.774;2023-03-19T01:41:07;15.15;;;10.45;;
51828;SDS011;37881;48.024;8.774;2023-03-19T01:43:33;15.20;;;9.40;;
51828;SDS011;37881;48.024;8.774;2023-03-19T01:46:03;17.20;;;10.13;;
51828;SDS011;37881;48.024;8.774;2023-03-19T01:48:49;16.10;;;8.70;;
51828;SDS011;37881;48.024;8.774;2023-03-19T01:51:19;16.02;;;8.18;;
51828;SDS011;37881;48.024;8.774;2023-03-19T01:53:53;90.50;;;46.40;;
51828;SDS011;37881;48.024;8.774;2023-03-19T01:56:25;36.55;;;18.30;;
51828;SDS011;37881;48.024;8.774;2023-03-19T01:58:56;20.27;;;11.50;;
51828;SDS011;37881;48.024;8.774;2023-03-19T02:01:27;29.17;;;14.43;;
51828;SDS011;37881;48.024;8.774;2023-03-19T02:03:56;27.20;;;13.77;;
51828;SDS011;37881;48.024;8.774;2023-03-19T02:06:25;26.85;;;13.23;;
51828;SDS011;37881;48.024;8.774;2023-03-19T02:08:53;18.27;;;11.23;;
51828;SDS011;37881;48.024;8.774;2023-03-19T02:11:20;19.80;;;11.73;;
51828;SDS011;37881;48.024;8.774;2023-03-19T02:13:47;21.57;;;13.97;;
51828;SDS011;37881;48.024;8.774;2023-03-19T02:16:14;21.10;;;12.70;;
51828;SDS011;37881;48.024;8.774;2023-03-19T02:18:41;21.20;;;12.13;;
51828;SDS011;37881;48.024;8.774;2023-03-19T02:21:09;19.45;;;11.05;;
51828;SDS011;37881;48.024;8.774;2023-03-19T02:26:25;16.47;;;9.43;;
51828;SDS011;37881;48.024;8.774;2023-03-19T02:28:54;12.93;;;7.50;;
51828;SDS011;37881;48.024;8.774;2023-03-19T02:31:21;12.20;;;7.85;;
51828;SDS011;37881;48.024;8.774;2023-03-19T02:34:02;10.90;;;7.00;;
51828;SDS011;37881;48.024;8.774;2023-03-19T02:36:35;15.73;;;9.52;;
51828;SDS011;37881;48.024;8.774;2023-03-19T02:39:07;13.20;;;8.80;;
51828;SDS011;37881;48.024;8.774;2023-03-19T02:41:46;13.02;;;7.00;;
51828;SDS011;37881;48.024;8.774;2023-03-19T02:44:14;11.13;;;6.88;;
51828;SDS011;37881;48.024;8.774;2023-03-19T02:46:45;11.10;;;6.28;;
51828;SDS011;37881;48.024;8.774;2023-03-19T02:49:12;8.43;;;5.68;;
51828;SDS011;37881;48.024;8.774;2023-03-19T02:51:38;8.77;;;6.23;;
51828;SDS011;37881;48.024;8.774;2023-03-19T02:54:07;16.27;;;8.60;;
51828;SDS011;37881;48.024;8.774;2023-03-19T02:56:33;15.45;;;9.70;;
51828;SDS011;37881;48.024;8.774;2023-03-19T02:59:00;15.82;;;9.85;;
51828;SDS011;37881;48.024;8.774;2023-03-19T03:01:27;18.90;;;11.32;;
51828;SDS011;37881;48.024;8.774;2023-03-19T03:03:55;14.07;;;8.30;;
51828;SDS011;37881;48.024;8.774;2023-03-19T03:06:22;14.43;;;7.85;;
51828;SDS011;37881;48.024;8.774;2023-03-19T03:08:48;13.73;;;8.43;;
51828;SDS011;37881;48.024;8.774;2023-03-19T03:11:15;16.73;;;9.80;;
51828;SDS011;37881;48.024;8.774;2023-03-19T03:13:41;16.77;;;9.35;;
51828;SDS011;37881;48.024;8.774;2023-03-19T03:16:08;13.43;;;8.10;;
51828;SDS011;37881;48.024;8.774;2023-03-19T03:18:35;11.57;;;7.00;;
51828;SDS011;37881;48.024;8.774;2023-03-19T03:21:02;11.32;;;7.20;;
51828;SDS011;37881;48.024;8.774;2023-03-19T03:23:29;11.30;;;6.72;;
51828;SDS011;37881;48.024;8.774;2023-03-19T03:25:56;11.10;;;6.22;;
51828;SDS011;37881;48.024;8.774;2023-03-19T03:28:23;9.87;;;6.30;;
51828;SDS011;37881;48.024;8.774;2023-03-19T03:30:49;9.23;;;6.13;;
51828;SDS011;37881;48.024;8.774;2023-03-19T03:33:17;8.93;;;5.45;;
51828;SDS011;37881;48.024;8.774;2023-03-19T03:35:43;10.45;;;5.60;;
51828;SDS011;37881;48.024;8.774;2023-03-19T03:38:10;9.63;;;6.20;;
51828;SDS011;37881;48.024;8.774;2023-03-19T03:40:37;11.27;;;6.47;;
51828;SDS011;37881;48.024;8.774;2023-03-19T03:43:04;12.32;;;6.47;;
51828;SDS011;37881;48.024;8.774;2023-03-19T03:45:31;13.07;;;6.25;;
51828;SDS011;37881;48.024;8.774;2023-03-19T03:47:58;10.52;;;6.38;;
51828;SDS011;37881;48.024;8.774;2023-03-19T03:50:25;9.32;;;5.93;;
51828;SDS011;37881;48.024;8.774;2023-03-19T03:52:52;10.97;;;6.23;;
51828;SDS011;37881;48.024;8.774;2023-03-19T03:55:18;10.40;;;6.65;;
51828;SDS011;37881;48.024;8.774;2023-03-19T03:57:45;11.68;;;6.43;;
51828;SDS011;37881;48.024;8.774;2023-03-19T04:00:12;11.48;;;6.97;;
51828;SDS011;37881;48.024;8.774;2023-03-19T04:02:39;14.00;;;7.60;;
51828;SDS011;37881;48.024;8.774;2023-03-19T04:05:06;13.60;;;7.27;;
51828;SDS011;37881;48.024;8.774;2023-03-19T04:07:33;10.02;;;6.18;;
51828;SDS011;37881;48.024;8.774;2023-03-19T04:10:00;12.73;;;7.30;;
51828;SDS011;37881;48.024;8.774;2023-03-19T04:12:27;13.43;;;7.55;;
51828;SDS011;37881;48.024;8.774;2023-03-19T04:14:53;11.82;;;6.45;;
51828;SDS011;37881;48.024;8.774;2023-03-19T04:17:20;16.23;;;9.90;;
51828;SDS011;37881;48.024;8.774;2023-03-19T04:19:47;13.15;;;8.10;;
51828;SDS011;37881;48.024;8.774;2023-03-19T04:22:14;13.63;;;7.45;;
51828;SDS011;37881;48.024;8.774;2023-03-19T04:24:41;15.82;;;9.02;;
51828;SDS011;37881;48.024;8.774;2023-03-19T04:27:07;10.45;;;6.55;;
51828;SDS011;37881;48.024;8.774;2023-03-19T04:29:34;10.60;;;5.47;;
51828;SDS011;37881;48.024;8.774;2023-03-19T04:32:01;8.15;;;5.40;;
51828;SDS011;37881;48.024;8.774;2023-03-19T04:34:28;9.13;;;5.95;;
51828;SDS011;37881;48.024;8.774;2023-03-19T04:36:56;10.50;;;6.30;;
51828;SDS011;37881;48.024;8.774;2023-03-19T04:39:23;10.18;;;6.50;;
51828;SDS011;37881;48.024;8.774;2023-03-19T04:41:51;10.73;;;6.57;;
51828;SDS011;37881;48.024;8.774;2023-03-19T04:44:17;9.73;;;6.45;;
51828;SDS011;37881;48.024;8.774;2023-03-19T04:46:44;10.43;;;6.28;;
51828;SDS011;37881;48.024;8.774;2023-03-19T04:49:11;10.80;;;6.50;;
51828;SDS011;37881;48.024;8.774;2023-03-19T04:51:38;11.77;;;6.18;;
51828;SDS011;37881;48.024;8.774;2023-03-19T04:54:06;10.20;;;5.90;;
51828;SDS011;37881;48.024;8.774;2023-03-19T04:56:33;9.18;;;6.00;;
51828;SDS011;37881;48.024;8.774;2023-03-19T04:58:59;10.02;;;6.18;;
51828;SDS011;37881;48.024;8.774;2023-03-19T05:01:26;8.55;;;5.20;;
51828;SDS011;37881;48.024;8.774;2023-03-19T05:03:53;10.77;;;5.63;;
51828;SDS011;37881;48.024;8.774;2023-03-19T05:06:20;11.40;;;5.47;;
51828;SDS011;37881;48.024;8.774;2023-03-19T05:08:46;8.70;;;5.13;;
51828;SDS011;37881;48.024;8.774;2023-03-19T05:11:13;8.95;;;4.88;;
51828;SDS011;37881;48.024;8.774;2023-03-19T05:13:40;8.38;;;5.30;;
51828;SDS011;37881;48.024;8.774;2023-03-19T05:16:07;8.73;;;5.25;;
51828;SDS011;37881;48.024;8.774;2023-03-19T05:18:34;11.20;;;5.37;;
51828;SDS011;37881;48.024;8.774;2023-03-19T05:21:01;9.63;;;5.65;;
51828;SDS011;37881;48.024;8.774;2023-03-19T05:23:30;8.98;;;5.65;;
51828;SDS011;37881;48.024;8.774;2023-03-19T05:25:57;9.75;;;5.80;;
51828;SDS011;37881;48.024;8.774;2023-03-19T05:28:26;11.02;;;5.57;;
51828;SDS011;37881;48.024;8.774;2023-03-19T05:30:53;8.00;;;4.70;;
51828;SDS011;37881;48.024;8.774;2023-03-19T05:33:20;10.68;;;5.07;;
51828;SDS011;37881;48.024;8.774;2023-03-19T05:35:51;8.43;;;5.00;;
51828;SDS011;37881;48.024;8.774;2023-03-19T05:38:18;8.45;;;5.15;;
51828;SDS011;37881;48.024;8.774;2023-03-19T05:40:45;9.77;;;6.00;;
51828;SDS011;37881;48.024;8.774;2023-03-19T05:43:12;10.03;;;5.93;;
51828;SDS011;37881;48.024;8.774;2023-03-19T05:45:39;9.75;;;6.20;;
51828;SDS011;37881;48.024;8.774;2023-03-19T05:48:07;10.15;;;5.32;;
51828;SDS011;37881;48.024;8.774;2023-03-19T05:50:34;9.38;;;6.10;;
51828;SDS011;37881;48.024;8.774;2023-03-19T05:53:01;9.43;;;5.55;;
51828;SDS011;37881;48.024;8.774;2023-03-19T05:55:28;9.23;;;5.90;;
51828;SDS011;37881;48.024;8.774;2023-03-19T05:57:55;9.57;;;5.43;;
51828;SDS011;37881;48.024;8.774;2023-03-19T06:00:22;9.95;;;5.53;;
51828;SDS011;37881;48.024;8.774;2023-03-19T06:02:49;9.68;;;5.63;;
51828;SDS011;37881;48.024;8.774;2023-03-19T06:05:16;8.63;;;5.63;;
51828;SDS011;37881;48.024;8.774;2023-03-19T06:07:43;9.47;;;5.43;;
51828;SDS011;37881;48.024;8.774;2023-03-19T06:10:10;9.00;;;5.20;;
51828;SDS011;37881;48.024;8.774;2023-03-19T06:12:37;8.30;;;5.50;;
51828;SDS011;37881;48.024;8.774;2023-03-19T06:15:04;9.40;;;5.93;;
51828;SDS011;37881;48.024;8.774;2023-03-19T06:17:32;11.90;;;6.97;;
51828;SDS011;37881;48.024;8.774;2023-03-19T06:19:58;10.70;;;6.30;;
51828;SDS011;37881;48.024;8.774;2023-03-19T06:22:25;10.32;;;6.28;;
51828;SDS011;37881;48.024;8.774;2023-03-19T06:24:52;9.35;;;5.70;;
51828;SDS011;37881;48.024;8.774;2023-03-19T06:27:18;8.90;;;5.13;;
51828;SDS011;37881;48.024;8.774;2023-03-19T06:29:45;8.52;;;5.40;;
51828;SDS011;37881;48.024;8.774;2023-03-19T06:32:12;8.17;;;5.50;;
51828;SDS011;37881;48.024;8.774;2023-03-19T06:34:39;9.30;;;5.35;;
51828;SDS011;37881;48.024;8.774;2023-03-19T06:37:05;8.85;;;5.50;;
51828;SDS011;37881;48.024;8.774;2023-03-19T06:39:32;9.80;;;5.88;;
51828;SDS011;37881;48.024;8.774;2023-03-19T06:42:00;9.93;;;6.35;;
51828;SDS011;37881;48.024;8.774;2023-03-19T06:44:27;9.93;;;6.07;;
51828;SDS011;37881;48.024;8.774;2023-03-19T06:46:53;12.30;;;6.93;;
51828;SDS011;37881;48.024;8.774;2023-03-19T06:49:20;11.38;;;6.70;;
51828;SDS011;37881;48.024;8.774;2023-03-19T06:51:47;10.95;;;6.40;;
51828;SDS011;37881;48.024;8.774;2023-03-19T06:54:13;10.48;;;6.30;;
51828;SDS011;37881;48.024;8.774;2023-03-19T06:56:40;10.47;;;5.70;;
51828;SDS011;37881;48.024;8.774;2023-03-19T06:59:07;9.57;;;5.50;;
51828;SDS011;37881;48.024;8.774;2023-03-19T07:01:41;10.63;;;5.68;;
51828;SDS011;37881;48.024;8.774;2023-03-19T07:04:08;9.52;;;5.60;;
51828;SDS011;37881;48.024;8.774;2023-03-19T07:06:36;8.90;;;5.70;;
51828;SDS011;37881;48.024;8.774;2023-03-19T07:09:03;10.33;;;5.23;;
51828;SDS011;37881;48.024;8.774;2023-03-19T07:11:30;8.48;;;5.18;;
51828;SDS011;37881;48.024;8.774;2023-03-19T07:14:00;11.23;;;5.60;;
51828;SDS011;37881;48.024;8.774;2023-03-19T07:16:27;8.70;;;5.50;;
51828;SDS011;37881;48.024;8.774;2023-03-19T07:18:53;8.55;;;5.68;;
51828;SDS011;37881;48.024;8.774;2023-03-19T07:21:21;34.47;;;17.00;;
51828;SDS011;37881;48.024;8.774;2023-03-19T07:23:48;74.55;;;35.88;;
51828;SDS011;37881;48.024;8.774;2023-03-19T07:26:16;65.60;;;34.80;;
51828;SDS011;37881;48.024;8.774;2023-03-19T07:28:43;11.75;;;7.70;;
51828;SDS011;37881;48.024;8.774;2023-03-19T07:31:10;13.35;;;6.57;;
51828;SDS011;37881;48.024;8.774;2023-03-19T07:33:37;13.57;;;7.77;;
51828;SDS011;37881;48.024;8.774;2023-03-19T07:36:04;21.23;;;14.18;;
51828;SDS011;37881;48.024;8.774;2023-03-19T07:38:31;11.48;;;7.78;;
51828;SDS011;37881;48.024;8.774;2023-03-19T07:40:58;15.00;;;9.82;;
51828;SDS011;37881;48.024;8.774;2023-03-19T07:43:28;13.55;;;8.40;;
51828;SDS011;37881;48.024;8.774;2023-03-19T07:45:56;13.13;;;8.67;;
51828;SDS011;37881;48.024;8.774;2023-03-19T07:48:24;16.65;;;9.88;;
51828;SDS011;37881;48.024;8.774;2023-03-19T07:50:50;18.65;;;13.13;;
51828;SDS011;37881;48.024;8.774;2023-03-19T07:53:18;10.98;;;7.25;;
51828;SDS011;37881;48.024;8.774;2023-03-19T07:55:45;12.32;;;7.60;;
51828;SDS011;37881;48.024;8.774;2023-03-19T07:58:12;12.30;;;7.60;;
51828;SDS011;37881;48.024;8.774;2023-03-19T08:00:39;14.43;;;8.45;;
51828;SDS011;37881;48.024;8.774;2023-03-19T08:03:06;23.98;;;15.38;;
51828;SDS011;37881;48.024;8.774;2023-03-19T08:05:33;25.85;;;16.20;;
51828;SDS011;37881;48.024;8.774;2023-03-19T08:07:59;38.08;;;23.23;;
51828;SDS011;37881;48.024;8.774;2023-03-19T08:10:26;21.67;;;13.87;;
51828;SDS011;37881;48.024;8.774;2023-03-19T08:12:53;10.02;;;6.38;;
51828;SDS011;37881;48.024;8.774;2023-03-19T08:15:19;16.27;;;10.77;;
51828;SDS011;37881;48.024;8.774;2023-03-19T08:17:46;13.77;;;9.05;;
51828;SDS011;37881;48.024;8.774;2023-03-19T08:20:14;10.38;;;6.90;;
51828;SDS011;37881;48.024;8.774;2023-03-19T08:22:42;10.00;;;6.60;;
51828;SDS011;37881;48.024;8.774;2023-03-19T08:25:09;11.65;;;6.88;;
51828;SDS011;37881;48.024;8.774;2023-03-19T08:27:36;11.10;;;6.13;;
51828;SDS011;37881;48.024;8.774;2023-03-19T08:30:04;11.52;;;6.95;;
51828;SDS011;37881;48.024;8.774;2023-03-19T08:32:33;11.13;;;6.53;;
51828;SDS011;37881;48.024;8.774;2023-03-19T08:35:01;9.77;;;6.20;;
51828;SDS011;37881;48.024;8.774;2023-03-19T08:37:28;10.85;;;6.45;;
51828;SDS011;37881;48.024;8.774;2023-03-19T08:39:55;9.80;;;5.72;;
51828;SDS011;37881;48.024;8.774;2023-03-19T08:42:22;14.27;;;7.45;;
51828;SDS011;37881;48.024;8.774;2023-03-19T08:44:49;24.88;;;19.20;;
51828;SDS011;37881;48.024;8.774;2023-03-19T08:47:15;14.30;;;10.17;;
51828;SDS011;37881;48.024;8.774;2023-03-19T08:49:42;9.30;;;6.00;;
51828;SDS011;37881;48.024;8.774;2023-03-19T08:52:09;10.57;;;5.55;;
51828;SDS011;37881;48.024;8.774;2023-03-19T08:54:36;9.75;;;5.78;;
51828;SDS011;37881;48.024;8.774;2023-03-19T08:57:02;11.32;;;5.85;;
51828;SDS011;37881;48.024;8.774;2023-03-19T08:59:29;9.70;;;5.93;;
51828;SDS011;37881;48.024;8.774;2023-03-19T09:01:59;9.60;;;5.70;;
51828;SDS011;37881;48.024;8.774;2023-03-19T09:04:27;12.18;;;6.07;;
51828;SDS011;37881;48.024;8.774;2023-03-19T09:06:54;9.27;;;5.68;;
51828;SDS011;37881;48.024;8.774;2023-03-19T09:09:22;8.80;;;5.78;;
51828;SDS011;37881;48.024;8.774;2023-03-19T09:11:49;8.67;;;5.80;;
51828;SDS011;37881;48.024;8.774;2023-03-19T09:14:16;10.52;;;5.82;;
51828;SDS011;37881;48.024;8.774;2023-03-19T09:16:45;8.77;;;5.72;;
51828;SDS011;37881;48.024;8.774;2023-03-19T09:19:11;11.32;;;5.78;;
51828;SDS011;37881;48.024;8.774;2023-03-19T09:21:38;9.98;;;5.75;;
51828;SDS011;37881;48.024;8.774;2023-03-19T09:24:05;9.90;;;5.97;;
51828;SDS011;37881;48.024;8.774;2023-03-19T09:26:32;12.98;;;5.80;;
51828;SDS011;37881;48.024;8.774;2023-03-19T09:28:59;10.65;;;5.78;;
51828;SDS011;37881;48.024;8.774;2023-03-19T09:31:26;8.77;;;5.78;;
51828;SDS011;37881;48.024;8.774;2023-03-19T09:33:55;8.88;;;5.93;;
51828;SDS011;37881;48.024;8.774;2023-03-19T09:36:22;9.30;;;5.90;;
51828;SDS011;37881;48.024;8.774;2023-03-19T09:38:48;8.80;;;5.68;;
51828;SDS011;37881;48.024;8.774;2023-03-19T09:44:04;13.98;;;6.15;;
51828;SDS011;37881;48.024;8.774;2023-03-19T09:49:26;11.40;;;7.33;;
51828;SDS011;37881;48.024;8.774;2023-03-19T09:51:55;10.90;;;6.03;;
51828;SDS011;37881;48.024;8.774;2023-03-19T09:57:11;8.82;;;5.68;;
51828;SDS011;37881;48.024;8.774;2023-03-19T09:59:40;8.45;;;6.00;;
51828;SDS011;37881;48.024;8.774;2023-03-19T10:08:04;7.82;;;5.80;;
51828;SDS011;37881;48.024;8.774;2023-03-19T10:10:50;8.23;;;5.70;;
51828;SDS011;37881;48.024;8.774;2023-03-19T10:16:30;8.73;;;5.50;;
51828;SDS011;37881;48.024;8.774;2023-03-19T10:18:58;7.72;;;5.55;;
51828;SDS011;37881;48.024;8.774;2023-03-19T10:24:38;8.05;;;5.93;;
51828;SDS011;37881;48.024;8.774;2023-03-19T10:27:13;10.32;;;6.55;;
51828;SDS011;37881;48.024;8.774;2023-03-19T10:29:44;10.37;;;5.87;;
51828;SDS011;37881;48.024;8.774;2023-03-19T10:32:18;9.00;;;5.80;;
51828;SDS011;37881;48.024;8.774;2023-03-19T10:34:50;8.85;;;5.40;;
51828;SDS011;37881;48.024;8.774;2023-03-19T10:37:28;10.02;;;5.93;;
51828;SDS011;37881;48.024;8.774;2023-03-19T10:39:56;8.77;;;5.32;;
51828;SDS011;37881;48.024;8.774;2023-03-19T10:42:45;8.93;;;6.43;;
51828;SDS011;37881;48.024;8.774;2023-03-19T10:45:31;8.70;;;5.15;;
51828;SDS011;37881;48.024;8.774;2023-03-19T10:48:01;8.13;;;5.95;;
51828;SDS011;37881;48.024;8.774;2023-03-19T10:50:47;9.32;;;4.30;;
51828;SDS011;37881;48.024;8.774;2023-03-19T10:55:54;7.93;;;4.20;;
51828;SDS011;37881;48.024;8.774;2023-03-19T10:58:33;8.00;;;4.20;;
51828;SDS011;37881;48.024;8.774;2023-03-19T11:01:08;8.98;;;4.50;;
51828;SDS011;37881;48.024;8.774;2023-03-19T11:03:38;6.60;;;4.10;;
51828;SDS011;37881;48.024;8.774;2023-03-19T11:06:16;8.48;;;4.25;;
51828;SDS011;37881;48.024;8.774;2023-03-19T11:08:50;6.93;;;4.30;;
51828;SDS011;37881;48.024;8.774;2023-03-19T11:11:35;7.85;;;4.15;;
51828;SDS011;37881;48.024;8.774;2023-03-19T11:16:46;6.70;;;3.78;;
51828;SDS011;37881;48.024;8.774;2023-03-19T11:19:18;6.95;;;3.90;;
51828;SDS011;37881;48.024;8.774;2023-03-19T11:24:40;7.00;;;3.83;;
51828;SDS011;37881;48.024;8.774;2023-03-19T11:27:13;8.02;;;4.10;;
51828;SDS011;37881;48.024;8.774;2023-03-19T11:29:40;6.35;;;4.03;;
51828;SDS011;37881;48.024;8.774;2023-03-19T11:35:00;6.17;;;3.60;;
51828;SDS011;37881;48.024;8.774;2023-03-19T11:40:19;6.18;;;3.70;;
51828;SDS011;37881;48.024;8.774;2023-03-19T11:45:34;9.38;;;4.45;;
51828;SDS011;37881;48.024;8.774;2023-03-19T11:48:17;7.67;;;4.13;;
51828;SDS011;37881;48.024;8.774;2023-03-19T12:21:13;6.13;;;4.25;;
51828;SDS011;37881;48.024;8.774;2023-03-19T12:24:51;7.20;;;4.03;;
51828;SDS011;37881;48.024;8.774;2023-03-19T12:35:35;7.70;;;4.70;;
51828;SDS011;37881;48.024;8.774;2023-03-19T12:38:08;8.02;;;4.70;;
51828;SDS011;37881;48.024;8.774;2023-03-19T12:51:58;7.45;;;4.50;;
51828;SDS011;37881;48.024;8.774;2023-03-19T12:54:36;9.73;;;4.82;;
51828;SDS011;37881;48.024;8.774;2023-03-19T12:58:13;8.33;;;4.60;;
51828;SDS011;37881;48.024;8.774;2023-03-19T13:00:34;8.13;;;4.75;;
51828;SDS011;37881;48.024;8.774;2023-03-19T13:03:15;10.10;;;6.15;;
51828;SDS011;37881;48.024;8.774;2023-03-19T13:11:12;9.87;;;6.10;;
51828;SDS011;37881;48.024;8.774;2023-03-19T13:17:06;8.85;;;4.70;;
51828;SDS011;37881;48.024;8.774;2023-03-19T13:19:47;7.22;;;4.50;;
51828;SDS011;37881;48.024;8.774;2023-03-19T13:22:22;6.68;;;4.30;;
51828;SDS011;37881;48.024;8.774;2023-03-19T13:24:53;7.40;;;4.40;;
51828;SDS011;37881;48.024;8.774;2023-03-19T13:27:31;9.82;;;4.30;;
51828;SDS011;37881;48.024;8.774;2023-03-19T13:32:46;6.20;;;3.88;;
51828;SDS011;37881;48.024;8.774;2023-03-19T13:37:59;6.00;;;3.93;;
51828;SDS011;37881;48.024;8.774;2023-03-19T13:40:53;7.15;;;4.20;;
51828;SDS011;37881;48.024;8.774;2023-03-19T13:51:02;6.17;;;3.93;;
51828;SDS011;37881;48.024;8.774;2023-03-19T13:54:05;7.03;;;4.10;;
51828;SDS011;37881;48.024;8.774;2023-03-19T13:59:27;7.50;;;4.03;;
51828;SDS011;37881;48.024;8.774;2023-03-19T14:01:56;9.15;;;3.65;;
51828;SDS011;37881;48.024;8.774;2023-03-19T14:04:25;5.40;;;3.63;;
51828;SDS011;37881;48.024;8.774;2023-03-19T14:09:40;6.53;;;3.50;;
51828;SDS011;37881;48.024;8.774;2023-03-19T14:14:42;5.57;;;3.20;;
51828;SDS011;37881;48.024;8.774;2023-03-19T14:17:14;6.00;;;3.70;;
51828;SDS011;37881;48.024;8.774;2023-03-19T14:19:45;6.32;;;3.25;;
51828;SDS011;37881;48.024;8.774;2023-03-19T14:25:02;5.47;;;3.20;;
51828;SDS011;37881;48.024;8.774;2023-03-19T14:27:46;7.43;;;4.53;;
51828;SDS011;37881;48.024;8.774;2023-03-19T14:30:25;9.00;;;4.40;;
51828;SDS011;37881;48.024;8.774;2023-03-19T14:32:58;6.90;;;3.53;;
51828;SDS011;37881;48.024;8.774;2023-03-19T14:35:28;5.68;;;3.40;;
51828;SDS011;37881;48.024;8.774;2023-03-19T14:38:01;6.57;;;3.30;;
51828;SDS011;37881;48.024;8.774;2023-03-19T14:40:42;6.97;;;4.15;;
51828;SDS011;37881;48.024;8.774;2023-03-19T14:46:23;4.47;;;3.10;;
51828;SDS011;37881;48.024;8.774;2023-03-19T14:51:52;6.25;;;3.00;;
51828;SDS011;37881;48.024;8.774;2023-03-19T14:54:32;5.65;;;2.95;;
51828;SDS011;37881;48.024;8.774;2023-03-19T14:57:07;5.13;;;3.20;;
51828;SDS011;37881;48.024;8.774;2023-03-19T14:59:41;5.03;;;2.58;;
51828;SDS011;37881;48.024;8.774;2023-03-19T15:02:17;4.03;;;2.40;;
51828;SDS011;37881;48.024;8.774;2023-03-19T15:04:45;4.63;;;2.50;;
51828;SDS011;37881;48.024;8.774;2023-03-19T15:07:20;7.30;;;2.90;;
51828;SDS011;37881;48.024;8.774;2023-03-19T15:09:54;4.83;;;2.70;;
51828;SDS011;37881;48.024;8.774;2023-03-19T15:17:35;7.00;;;3.47;;
51828;SDS011;37881;48.024;8.774;2023-03-19T15:20:17;6.35;;;3.35;;
51828;SDS011;37881;48.024;8.774;2023-03-19T15:22:56;5.60;;;3.10;;
51828;SDS011;37881;48.024;8.774;2023-03-19T15:25:26;5.90;;;3.13;;
51828;SDS011;37881;48.024;8.774;2023-03-19T15:30:39;6.93;;;3.15;;
51828;SDS011;37881;48.024;8.774;2023-03-19T15:33:23;6.88;;;3.90;;
51828;SDS011;37881;48.024;8.774;2023-03-19T15:38:34;7.75;;;4.40;;
51828;SDS011;37881;48.024;8.774;2023-03-19T15:41:07;7.22;;;4.60;;
51828;SDS011;37881;48.024;8.774;2023-03-19T15:43:37;8.05;;;4.53;;
51828;SDS011;37881;48.024;8.774;2023-03-19T15:46:06;6.85;;;4.50;;
51828;SDS011;37881;48.024;8.774;2023-03-19T15:48:38;8.53;;;4.40;;
51828;SDS011;37881;48.024;8.774;2023-03-19T15:51:11;6.03;;;3.80;;
51828;SDS011;37881;48.024;8.774;2023-03-19T15:53:40;6.15;;;3.83;;
51828;SDS011;37881;48.024;8.774;2023-03-19T15:56:08;6.93;;;4.22;;
51828;SDS011;37881;48.024;8.774;2023-03-19T15:58:41;6.35;;;4.05;;
51828;SDS011;37881;48.024;8.774;2023-03-19T16:01:12;6.90;;;4.10;;
51828;SDS011;37881;48.024;8.774;2023-03-19T16:03:49;6.95;;;4.50;;
51828;SDS011;37881;48.024;8.774;2023-03-19T16:06:22;6.10;;;4.05;;
51828;SDS011;37881;48.024;8.774;2023-03-19T16:08:55;7.13;;;4.40;;
51828;SDS011;37881;48.024;8.774;2023-03-19T16:11:41;9.85;;;6.30;;
51828;SDS011;37881;48.024;8.774;2023-03-19T16:16:40;6.60;;;4.22;;
51828;SDS011;37881;48.024;8.774;2023-03-19T16:19:27;8.77;;;4.50;;
51828;SDS011;37881;48.024;8.774;2023-03-19T16:21:57;7.97;;;5.25;;
51828;SDS011;37881;48.024;8.774;2023-03-19T16:24:39;7.35;;;4.80;;
51828;SDS011;37881;48.024;8.774;2023-03-19T16:27:11;9.63;;;5.73;;
51828;SDS011;37881;48.024;8.774;2023-03-19T16:29:40;7.30;;;4.93;;
51828;SDS011;37881;48.024;8.774;2023-03-19T16:32:17;7.47;;;5.05;;
51828;SDS011;37881;48.024;8.774;2023-03-19T16:37:42;8.98;;;6.00;;
51828;SDS011;37881;48.024;8.774;2023-03-19T16:42:46;6.55;;;4.47;;
51828;SDS011;37881;48.024;8.774;2023-03-19T16:47:48;6.05;;;3.72;;
51828;SDS011;37881;48.024;8.774;2023-03-19T16:50:19;8.93;;;5.00;;
51828;SDS011;37881;48.024;8.774;2023-03-19T16:52:51;9.17;;;4.63;;
51828;SDS011;37881;48.024;8.774;2023-03-19T16:55:21;7.18;;;4.07;;
51828;SDS011;37881;48.024;8.774;2023-03-19T17:00:25;6.22;;;3.20;;
51828;SDS011;37881;48.024;8.774;2023-03-19T17:02:57;3.10;;;2.00;;
51828;SDS011;37881;48.024;8.774;2023-03-19T17:05:24;4.53;;;2.10;;
51828;SDS011;37881;48.024;8.774;2023-03-19T17:07:53;7.47;;;2.60;;
51828;SDS011;37881;48.024;8.774;2023-03-19T17:10:24;4.75;;;2.70;;
51828;SDS011;37881;48.024;8.774;2023-03-19T17:12:54;5.10;;;2.60;;
51828;SDS011;37881;48.024;8.774;2023-03-19T17:15:28;4.88;;;3.00;;
51828;SDS011;37881;48.024;8.774;2023-03-19T17:17:59;6.40;;;3.63;;
51828;SDS011;37881;48.024;8.774;2023-03-19T17:20:34;6.60;;;2.60;;
51828;SDS011;37881;48.024;8.774;2023-03-19T17:23:10;4.05;;;1.83;;
51828;SDS011;37881;48.024;8.774;2023-03-19T17:25:38;4.30;;;2.10;;